createdAt,value
2018-07-22T00:00:39.863Z,0.00
2018-07-22T00:01:39.859Z,0.00
2018-07-22T00:02:39.851Z,0.00
2018-07-22T00:03:39.852Z,0.00
2018-07-22T00:04:39.853Z,0.00
2018-07-22T00:05:39.819Z,0.00
2018-07-22T00:06:39.755Z,0.00
2018-07-22T00:07:39.790Z,0.00
2018-07-22T00:08:39.784Z,0.00
2018-07-22T00:09:39.800Z,0.00
2018-07-22T00:10:39.715Z,0.00
2018-07-22T00:11:39.745Z,0.00
2018-07-22T00:12:39.736Z,0.00
2018-07-22T00:13:39.720Z,0.00
2018-07-22T00:14:39.746Z,0.00
2018-07-22T00:15:39.707Z,0.00
2018-07-22T00:16:39.656Z,0.00
2018-07-22T00:17:39.650Z,0.00
2018-07-22T00:18:39.676Z,0.00
2018-07-22T00:19:39.682Z,0.00
2018-07-22T00:20:39.660Z,0.00
2018-07-22T00:21:39.717Z,0.00
2018-07-22T00:22:39.635Z,0.00
2018-07-22T00:23:39.626Z,0.00
2018-07-22T00:24:39.637Z,0.00
2018-07-22T00:25:39.596Z,0.00
2018-07-22T00:26:39.599Z,0.00
2018-07-22T00:27:39.576Z,0.00
2018-07-22T00:28:39.562Z,0.00
2018-07-22T00:29:39.574Z,0.00
2018-07-22T00:30:39.541Z,0.00
2018-07-22T00:31:39.529Z,0.00
2018-07-22T00:32:39.528Z,0.00
2018-07-22T00:33:39.519Z,0.00
2018-07-22T00:34:39.535Z,0.00
2018-07-22T00:35:39.490Z,0.00
2018-07-22T00:36:39.478Z,0.00
2018-07-22T00:37:39.490Z,0.00
2018-07-22T00:38:39.470Z,0.00
2018-07-22T00:39:39.474Z,0.00
2018-07-22T00:40:39.394Z,0.00
2018-07-22T00:41:39.414Z,0.00
2018-07-22T00:42:39.439Z,0.00
2018-07-22T00:43:39.401Z,0.00
2018-07-22T00:44:39.404Z,0.00
2018-07-22T00:45:39.374Z,0.00
2018-07-22T00:46:39.359Z,0.00
2018-07-22T00:47:39.356Z,0.00
2018-07-22T00:48:39.354Z,0.00
2018-07-22T00:49:39.364Z,0.00
2018-07-22T00:50:39.334Z,0.00
2018-07-22T00:51:39.305Z,0.00
2018-07-22T00:52:39.302Z,0.00
2018-07-22T00:53:39.282Z,0.00
2018-07-22T00:54:39.312Z,0.00
2018-07-22T00:55:39.272Z,0.00
2018-07-22T00:56:39.260Z,0.00
2018-07-22T00:57:39.247Z,0.00
2018-07-22T00:58:39.232Z,0.00
2018-07-22T00:59:39.244Z,0.00
2018-07-22T01:00:39.206Z,0.00
2018-07-22T01:01:39.220Z,0.00
2018-07-22T01:02:39.150Z,0.00
2018-07-22T01:03:39.182Z,0.00
2018-07-22T01:04:39.151Z,0.00
2018-07-22T01:05:39.165Z,0.00
2018-07-22T01:06:39.149Z,0.00
2018-07-22T01:07:39.152Z,0.00
2018-07-22T01:08:39.130Z,0.00
2018-07-22T01:09:39.113Z,0.00
2018-07-22T01:10:39.133Z,0.00
2018-07-22T01:11:39.120Z,0.00
2018-07-22T01:12:39.040Z,0.00
2018-07-22T01:13:39.072Z,0.00
2018-07-22T01:14:39.097Z,0.00
2018-07-22T01:15:39.085Z,0.00
2018-07-22T01:16:39.044Z,0.00
2018-07-22T01:17:39.040Z,0.00
2018-07-22T01:18:39.043Z,0.00
2018-07-22T01:19:39.027Z,0.00
2018-07-22T01:20:39.145Z,0.00
2018-07-22T01:21:38.944Z,0.00
2018-07-22T01:22:38.986Z,0.00
2018-07-22T01:23:38.961Z,0.00
2018-07-22T01:24:38.979Z,0.00
2018-07-22T01:25:38.977Z,0.00
2018-07-22T01:26:38.955Z,0.00
2018-07-22T01:27:38.957Z,0.00
2018-07-22T01:28:38.906Z,0.00
2018-07-22T01:29:38.906Z,0.00
2018-07-22T01:30:39.024Z,0.00
2018-07-22T01:31:38.878Z,0.00
2018-07-22T01:32:38.874Z,0.00
2018-07-22T01:33:38.881Z,0.00
2018-07-22T01:34:38.806Z,0.00
2018-07-22T01:35:38.884Z,0.00
2018-07-22T01:36:38.846Z,0.00
2018-07-22T01:37:38.825Z,0.00
2018-07-22T01:38:38.800Z,0.00
2018-07-22T01:39:38.796Z,0.00
2018-07-22T01:40:38.806Z,0.00
2018-07-22T01:41:38.767Z,0.00
2018-07-22T01:42:38.761Z,0.00
2018-07-22T01:43:38.751Z,0.00
2018-07-22T01:44:38.736Z,0.00
2018-07-22T01:45:38.754Z,0.00
2018-07-22T01:46:38.726Z,0.00
2018-07-22T01:47:38.675Z,0.00
2018-07-22T01:48:38.707Z,0.00
2018-07-22T01:49:38.748Z,0.00
2018-07-22T01:50:38.707Z,0.00
2018-07-22T01:51:38.666Z,0.00
2018-07-22T01:52:38.700Z,0.00
2018-07-22T01:53:38.639Z,0.00
2018-07-22T01:54:38.643Z,0.00
2018-07-22T01:55:38.691Z,0.00
2018-07-22T01:56:38.625Z,0.00
2018-07-22T01:57:38.614Z,0.00
2018-07-22T01:58:38.604Z,0.00
2018-07-22T01:59:38.590Z,0.00
2018-07-22T02:00:38.596Z,0.00
2018-07-22T02:01:38.589Z,0.00
2018-07-22T02:02:38.551Z,0.00
2018-07-22T02:03:38.538Z,0.00
2018-07-22T02:04:38.535Z,0.00
2018-07-22T02:05:38.509Z,0.00
2018-07-22T02:06:38.512Z,0.00
2018-07-22T02:07:38.497Z,0.00
2018-07-22T02:08:38.491Z,0.00
2018-07-22T02:09:38.471Z,0.00
2018-07-22T02:10:38.491Z,0.00
2018-07-22T02:11:38.453Z,0.00
2018-07-22T02:12:38.443Z,0.00
2018-07-22T02:13:38.458Z,0.00
2018-07-22T02:14:38.426Z,0.00
2018-07-22T02:15:38.487Z,0.00
2018-07-22T02:16:38.386Z,0.00
2018-07-22T02:17:38.358Z,0.00
2018-07-22T02:18:38.419Z,0.00
2018-07-22T02:19:38.368Z,0.00
2018-07-22T02:20:38.387Z,0.00
2018-07-22T02:21:38.352Z,0.00
2018-07-22T02:22:38.336Z,0.00
2018-07-22T02:23:38.352Z,0.00
2018-07-22T02:24:38.343Z,0.00
2018-07-22T02:25:38.297Z,0.00
2018-07-22T02:26:38.301Z,0.00
2018-07-22T02:27:38.327Z,0.00
2018-07-22T02:28:38.269Z,0.00
2018-07-22T02:29:38.211Z,0.00
2018-07-22T02:30:38.253Z,0.00
2018-07-22T02:31:38.272Z,0.00
2018-07-22T02:32:38.232Z,0.00
2018-07-22T02:33:38.242Z,0.00
2018-07-22T02:34:38.206Z,0.00
2018-07-22T02:35:38.200Z,0.00
2018-07-22T02:36:38.220Z,0.00
2018-07-22T02:37:38.192Z,0.00
2018-07-22T02:38:38.175Z,0.00
2018-07-22T02:39:38.156Z,0.00
2018-07-22T02:40:38.153Z,0.00
2018-07-22T02:41:38.162Z,0.00
2018-07-22T02:42:38.127Z,0.00
2018-07-22T02:43:38.120Z,0.00
2018-07-22T02:44:38.123Z,0.00
2018-07-22T02:45:38.095Z,0.00
2018-07-22T02:46:38.139Z,0.00
2018-07-22T02:47:38.073Z,0.00
2018-07-22T02:48:38.053Z,0.00
2018-07-22T02:49:38.057Z,0.00
2018-07-22T02:50:38.037Z,0.00
2018-07-22T02:51:38.166Z,0.00
2018-07-22T02:52:38.027Z,0.00
2018-07-22T02:53:38.017Z,0.00
2018-07-22T02:54:37.989Z,0.00
2018-07-22T02:55:37.990Z,0.00
2018-07-22T02:56:38.011Z,0.00
2018-07-22T02:57:37.966Z,0.00
2018-07-22T02:58:37.947Z,0.00
2018-07-22T02:59:37.941Z,0.00
2018-07-22T03:00:37.935Z,0.00
2018-07-22T03:01:37.957Z,0.00
2018-07-22T03:02:37.864Z,0.00
2018-07-22T03:03:37.906Z,0.00
2018-07-22T03:04:37.896Z,0.00
2018-07-22T03:05:37.874Z,0.00
2018-07-22T03:06:37.895Z,0.00
2018-07-22T03:07:37.836Z,0.00
2018-07-22T03:08:37.862Z,0.00
2018-07-22T03:09:37.787Z,0.00
2018-07-22T03:10:37.771Z,0.00
2018-07-22T03:11:37.836Z,0.00
2018-07-22T03:12:37.800Z,0.00
2018-07-22T03:13:37.798Z,0.00
2018-07-22T03:14:37.796Z,0.00
2018-07-22T03:15:37.768Z,0.00
2018-07-22T03:16:37.867Z,4.00
2018-07-22T03:17:37.745Z,4.00
2018-07-22T03:18:37.733Z,4.00
2018-07-22T03:19:37.734Z,0.00
2018-07-22T03:20:37.676Z,0.00
2018-07-22T03:21:37.723Z,4.00
2018-07-22T03:22:37.797Z,4.00
2018-07-22T03:23:37.682Z,4.00
2018-07-22T03:24:37.697Z,4.00
2018-07-22T03:25:37.672Z,4.00
2018-07-22T03:26:37.749Z,4.00
2018-07-22T03:27:37.633Z,8.00
2018-07-22T03:28:37.623Z,4.00
2018-07-22T03:29:37.623Z,8.00
2018-07-22T03:30:37.627Z,8.00
2018-07-22T03:31:37.624Z,8.00
2018-07-22T03:32:37.594Z,8.00
2018-07-22T03:33:37.570Z,12.00
2018-07-22T03:34:37.566Z,12.00
2018-07-22T03:35:37.553Z,16.00
2018-07-22T03:36:37.569Z,16.00
2018-07-22T03:37:37.528Z,20.00
2018-07-22T03:38:37.514Z,20.00
2018-07-22T03:39:37.506Z,16.00
2018-07-22T03:40:37.508Z,20.00
2018-07-22T03:41:37.483Z,20.00
2018-07-22T03:42:37.500Z,24.00
2018-07-22T03:43:37.460Z,24.00
2018-07-22T03:44:37.457Z,28.00
2018-07-22T03:45:37.448Z,28.00
2018-07-22T03:46:37.435Z,32.00
2018-07-22T03:47:37.398Z,36.00
2018-07-22T03:48:37.408Z,36.00
2018-07-22T03:49:37.396Z,40.00
2018-07-22T03:50:37.385Z,40.00
2018-07-22T03:51:37.373Z,44.00
2018-07-22T03:52:37.395Z,48.00
2018-07-22T03:53:37.356Z,48.00
2018-07-22T03:54:37.296Z,52.00
2018-07-22T03:55:37.334Z,52.00
2018-07-22T03:56:37.321Z,60.00
2018-07-22T03:57:37.296Z,56.00
2018-07-22T03:58:37.299Z,64.00
2018-07-22T03:59:37.287Z,64.00
2018-07-22T04:00:37.280Z,64.00
2018-07-22T04:01:37.273Z,68.00
2018-07-22T04:02:37.296Z,72.00
2018-07-22T04:03:37.245Z,76.00
2018-07-22T04:04:37.229Z,80.00
2018-07-22T04:05:37.219Z,84.00
2018-07-22T04:06:37.213Z,88.00
2018-07-22T04:07:37.229Z,96.00
2018-07-22T04:08:37.191Z,100.00
2018-07-22T04:09:37.146Z,104.00
2018-07-22T04:10:37.168Z,104.00
2018-07-22T04:11:37.155Z,112.00
2018-07-22T04:12:37.171Z,116.00
2018-07-22T04:13:37.245Z,124.00
2018-07-22T04:14:37.136Z,128.00
2018-07-22T04:15:37.117Z,136.00
2018-07-22T04:16:37.108Z,144.00
2018-07-22T04:17:37.114Z,148.00
2018-07-22T04:18:37.085Z,156.00
2018-07-22T04:19:37.030Z,164.00
2018-07-22T04:20:37.053Z,168.00
2018-07-22T04:21:37.051Z,176.00
2018-07-22T04:22:37.056Z,180.00
2018-07-22T04:23:37.028Z,192.00
2018-07-22T04:24:37.025Z,196.00
2018-07-22T04:25:36.960Z,208.00
2018-07-22T04:26:36.995Z,220.00
2018-07-22T04:27:37.009Z,232.00
2018-07-22T04:28:36.970Z,236.00
2018-07-22T04:29:36.986Z,244.00
2018-07-22T04:30:36.955Z,248.00
2018-07-22T04:31:36.935Z,256.00
2018-07-22T04:32:36.957Z,264.00
2018-07-22T04:33:36.919Z,272.00
2018-07-22T04:34:36.910Z,280.00
2018-07-22T04:35:36.899Z,288.00
2018-07-22T04:36:36.884Z,304.00
2018-07-22T04:37:36.906Z,316.00
2018-07-22T04:38:36.875Z,336.00
2018-07-22T04:39:36.848Z,352.00
2018-07-22T04:40:36.839Z,372.00
2018-07-22T04:41:36.830Z,392.00
2018-07-22T04:42:36.845Z,416.00
2018-07-22T04:43:36.839Z,436.00
2018-07-22T04:44:36.795Z,460.00
2018-07-22T04:45:36.737Z,480.00
2018-07-22T04:46:36.769Z,500.00
2018-07-22T04:47:36.766Z,524.00
2018-07-22T04:48:36.781Z,552.00
2018-07-22T04:49:36.699Z,580.00
2018-07-22T04:50:36.734Z,620.00
2018-07-22T04:51:36.718Z,664.00
2018-07-22T04:52:36.709Z,708.00
2018-07-22T04:53:36.770Z,744.00
2018-07-22T04:54:36.683Z,784.00
2018-07-22T04:55:36.676Z,820.00
2018-07-22T04:56:36.667Z,856.00
2018-07-22T04:57:36.658Z,888.00
2018-07-22T04:58:36.660Z,916.00
2018-07-22T04:59:36.629Z,952.00
2018-07-22T05:00:36.623Z,984.00
2018-07-22T05:01:36.626Z,1028.00
2018-07-22T05:02:36.600Z,1084.00
2018-07-22T05:03:36.925Z,1136.00
2018-07-22T05:04:36.550Z,1180.00
2018-07-22T05:05:36.553Z,1244.00
2018-07-22T05:06:36.549Z,1308.00
2018-07-22T05:07:36.545Z,1368.00
2018-07-22T05:08:36.507Z,1432.00
2018-07-22T05:09:36.523Z,1500.00
2018-07-22T05:10:36.514Z,1564.00
2018-07-22T05:11:36.495Z,1628.00
2018-07-22T05:12:36.446Z,1696.00
2018-07-22T05:13:36.505Z,1764.00
2018-07-22T05:14:36.475Z,1844.00
2018-07-22T05:15:36.469Z,1932.00
2018-07-22T05:16:36.453Z,2032.00
2018-07-22T05:17:36.432Z,2132.00
2018-07-22T05:18:36.534Z,2232.00
2018-07-22T05:19:36.413Z,2324.00
2018-07-22T05:20:36.405Z,2420.00
2018-07-22T05:21:36.397Z,2516.00
2018-07-22T05:22:36.423Z,2616.00
2018-07-22T05:23:36.396Z,2716.00
2018-07-22T05:24:36.359Z,2820.00
2018-07-22T05:25:36.365Z,2916.00
2018-07-22T05:26:36.337Z,3020.00
2018-07-22T05:27:36.340Z,3136.00
2018-07-22T05:28:36.389Z,3244.00
2018-07-22T05:29:36.308Z,3348.00
2018-07-22T05:30:36.298Z,3472.00
2018-07-22T05:31:36.293Z,3608.00
2018-07-22T05:32:36.391Z,3764.00
2018-07-22T05:33:36.463Z,3900.00
2018-07-22T05:34:36.253Z,4008.00
2018-07-22T05:35:36.241Z,4088.00
2018-07-22T05:36:36.397Z,4176.00
2018-07-22T05:37:36.222Z,4272.00
2018-07-22T05:38:36.235Z,4348.00
2018-07-22T05:39:36.200Z,4416.00
2018-07-22T05:40:36.194Z,4508.00
2018-07-22T05:41:36.184Z,4636.00
2018-07-22T05:42:36.162Z,4784.00
2018-07-22T05:43:36.183Z,4944.00
2018-07-22T05:44:36.146Z,5132.00
2018-07-22T05:45:43.154Z,5312.00
2018-07-22T05:46:36.123Z,5476.00
2018-07-22T05:47:36.114Z,5600.00
2018-07-22T05:48:36.168Z,5708.00
2018-07-22T05:49:36.134Z,5812.00
2018-07-22T05:50:36.077Z,5904.00
2018-07-22T05:51:36.069Z,6016.00
2018-07-22T05:52:36.069Z,6116.00
2018-07-22T05:53:36.045Z,6244.00
2018-07-22T05:54:36.070Z,6384.00
2018-07-22T05:55:36.034Z,6572.00
2018-07-22T05:56:36.014Z,6804.00
2018-07-22T05:57:36.008Z,7080.00
2018-07-22T05:58:35.998Z,7372.00
2018-07-22T05:59:36.311Z,7660.00
2018-07-22T06:00:35.968Z,7900.00
2018-07-22T06:01:35.967Z,8112.00
2018-07-22T06:02:35.905Z,8316.00
2018-07-22T06:03:35.930Z,8516.00
2018-07-22T06:04:35.944Z,8716.00
2018-07-22T06:05:35.908Z,8920.00
2018-07-22T06:06:36.049Z,9052.00
2018-07-22T06:07:35.886Z,9052.00
2018-07-22T06:08:35.870Z,8948.00
2018-07-22T06:09:35.883Z,8844.00
2018-07-22T06:10:35.899Z,8824.00
2018-07-22T06:11:35.808Z,8896.00
2018-07-22T06:12:35.798Z,9132.00
2018-07-22T06:13:36.080Z,9484.00
2018-07-22T06:14:35.833Z,9932.00
2018-07-22T06:15:35.763Z,10396.00
2018-07-22T06:16:35.871Z,10840.00
2018-07-22T06:17:36.797Z,11220.00
2018-07-22T06:18:35.762Z,11544.00
2018-07-22T06:19:35.848Z,11768.00
2018-07-22T06:20:35.744Z,11952.00
2018-07-22T06:21:35.697Z,12116.00
2018-07-22T06:22:35.718Z,12288.00
2018-07-22T06:23:35.712Z,12492.00
2018-07-22T06:24:35.683Z,12792.00
2018-07-22T06:25:35.699Z,13148.00
2018-07-22T06:26:35.684Z,13592.00
2018-07-22T06:27:35.675Z,14028.00
2018-07-22T06:28:36.265Z,14460.00
2018-07-22T06:29:35.710Z,14932.00
2018-07-22T06:30:35.664Z,15504.00
2018-07-22T06:31:37.178Z,17440.00
2018-07-22T06:32:35.690Z,19904.00
2018-07-22T06:33:35.606Z,21120.00
2018-07-22T06:34:35.623Z,24480.00
2018-07-22T06:35:35.581Z,27072.00
2018-07-22T06:36:35.582Z,27744.00
2018-07-22T06:37:35.517Z,23872.00
2018-07-22T06:38:35.552Z,19552.00
2018-07-22T06:39:35.588Z,20160.00
2018-07-22T06:40:35.488Z,21120.00
2018-07-22T06:41:35.517Z,21696.00
2018-07-22T06:42:35.514Z,21920.00
2018-07-22T06:43:35.498Z,21440.00
2018-07-22T06:44:35.520Z,22976.00
2018-07-22T06:45:35.475Z,25056.00
2018-07-22T06:46:35.473Z,30240.00
2018-07-22T06:47:35.464Z,35648.00
2018-07-22T06:48:35.398Z,38816.00
2018-07-22T06:49:35.456Z,40768.00
2018-07-22T06:50:35.436Z,41824.00
2018-07-22T06:51:35.408Z,42240.00
2018-07-22T06:52:35.392Z,41536.00
2018-07-22T06:53:35.422Z,40672.00
2018-07-22T06:54:35.399Z,40928.00
2018-07-22T06:55:35.363Z,42560.00
2018-07-22T06:56:35.353Z,43296.00
2018-07-22T06:57:35.306Z,44192.00
2018-07-22T06:58:35.334Z,43904.00
2018-07-22T06:59:35.351Z,43840.00
2018-07-22T07:00:35.316Z,44064.00
2018-07-22T07:01:35.382Z,45120.00
2018-07-22T07:02:35.298Z,45600.00
2018-07-22T07:03:35.292Z,45344.00
2018-07-22T07:04:35.257Z,45504.00
2018-07-22T07:05:35.280Z,45600.00
2018-07-22T07:06:35.248Z,45568.00
2018-07-22T07:07:35.242Z,44896.00
2018-07-22T07:08:35.300Z,44992.00
2018-07-22T07:09:35.245Z,45440.00
2018-07-22T07:10:35.212Z,47488.00
2018-07-22T07:11:35.196Z,48288.00
2018-07-22T07:12:35.196Z,48704.00
2018-07-22T07:13:35.181Z,48640.00
2018-07-22T07:14:35.202Z,48768.00
2018-07-22T07:15:35.183Z,48928.00
2018-07-22T07:16:35.151Z,48576.00
2018-07-22T07:17:35.138Z,49440.00
2018-07-22T07:18:35.180Z,49312.00
2018-07-22T07:19:35.116Z,50016.00
2018-07-22T07:20:35.174Z,50784.00
2018-07-22T07:21:35.097Z,50432.00
2018-07-22T07:22:35.144Z,50464.00
2018-07-22T07:23:35.028Z,50432.00
2018-07-22T07:24:35.205Z,49408.00
2018-07-22T07:25:35.094Z,48928.00
2018-07-22T07:26:35.072Z,48704.00
2018-07-22T07:27:35.031Z,50016.00
2018-07-22T07:28:35.026Z,51488.00
2018-07-22T07:29:35.042Z,52832.00
2018-07-22T07:30:35.032Z,53088.00
2018-07-22T07:31:34.998Z,52320.00
2018-07-22T07:32:35.058Z,52000.00
2018-07-22T07:33:34.978Z,51680.00
2018-07-22T07:34:34.958Z,51584.00
2018-07-22T07:35:34.977Z,51712.00
2018-07-22T07:36:35.071Z,50560.00
2018-07-22T07:37:34.935Z,46912.00
2018-07-22T07:38:34.949Z,42304.00
2018-07-22T07:39:34.913Z,40192.00
2018-07-22T07:40:34.932Z,44192.00
2018-07-22T07:41:34.891Z,50720.00
2018-07-22T07:42:34.878Z,54432.00
2018-07-22T07:43:34.834Z,55232.00
2018-07-22T07:44:34.859Z,53760.00
2018-07-22T07:45:42.003Z,51840.00
2018-07-22T07:46:34.839Z,52448.00
2018-07-22T07:47:34.830Z,53184.00
2018-07-22T07:48:34.837Z,55232.00
2018-07-22T07:49:34.813Z,56384.00
2018-07-22T07:50:34.827Z,56288.00
2018-07-22T07:51:34.785Z,56224.00
2018-07-22T07:52:34.779Z,51808.00
2018-07-22T07:53:34.769Z,49408.00
2018-07-22T07:54:34.757Z,49408.00
2018-07-22T07:55:34.795Z,51136.00
2018-07-22T07:56:34.744Z,52928.00
2018-07-22T07:57:34.725Z,53504.00
2018-07-22T07:58:34.715Z,54720.00
2018-07-22T07:59:34.708Z,54688.00
2018-07-22T08:00:34.724Z,56768.00
2018-07-22T08:01:34.648Z,56576.00
2018-07-22T08:02:34.673Z,57024.00
2018-07-22T08:03:34.667Z,57760.00
2018-07-22T08:04:34.653Z,58560.00
2018-07-22T08:05:34.684Z,59104.00
2018-07-22T08:06:34.635Z,59904.00
2018-07-22T08:07:34.748Z,59488.00
2018-07-22T08:08:34.614Z,59648.00
2018-07-22T08:09:34.600Z,58208.00
2018-07-22T08:10:34.619Z,58464.00
2018-07-22T08:11:34.586Z,58976.00
2018-07-22T08:12:34.578Z,59488.00
2018-07-22T08:13:34.570Z,61472.00
2018-07-22T08:14:34.555Z,62976.00
2018-07-22T08:15:34.568Z,62272.00
2018-07-22T08:16:34.533Z,62304.00
2018-07-22T08:17:34.520Z,62528.00
2018-07-22T08:18:34.511Z,61728.00
2018-07-22T08:19:34.497Z,61664.00
2018-07-22T08:20:34.513Z,61248.00
2018-07-22T08:21:34.555Z,59424.00
2018-07-22T08:22:34.472Z,56096.00
2018-07-22T08:23:34.456Z,53056.00
2018-07-22T08:24:34.629Z,50496.00
2018-07-22T08:25:34.434Z,52960.00
2018-07-22T08:26:34.450Z,56096.00
2018-07-22T08:27:34.415Z,59040.00
2018-07-22T08:28:34.479Z,53408.00
2018-07-22T08:29:34.394Z,36832.00
2018-07-22T08:30:34.432Z,22176.00
2018-07-22T08:31:34.402Z,20160.00
2018-07-22T08:32:34.361Z,19904.00
2018-07-22T08:33:34.354Z,19808.00
2018-07-22T08:34:34.367Z,19648.00
2018-07-22T08:35:34.332Z,19360.00
2018-07-22T08:36:34.360Z,18696.00
2018-07-22T08:37:34.309Z,18320.00
2018-07-22T08:38:34.306Z,17980.00
2018-07-22T08:39:34.287Z,17908.00
2018-07-22T08:40:34.284Z,17848.00
2018-07-22T08:41:34.381Z,17784.00
2018-07-22T08:42:34.259Z,17652.00
2018-07-22T08:43:34.249Z,17564.00
2018-07-22T08:44:34.242Z,17456.00
2018-07-22T08:45:34.224Z,17352.00
2018-07-22T08:46:34.249Z,17172.00
2018-07-22T08:47:34.324Z,16964.00
2018-07-22T08:48:34.199Z,16784.00
2018-07-22T08:49:34.189Z,16560.00
2018-07-22T08:50:34.180Z,16404.00
2018-07-22T08:51:34.170Z,16348.00
2018-07-22T08:52:34.141Z,16228.00
2018-07-22T08:53:34.151Z,16128.00
2018-07-22T08:54:34.138Z,16024.00
2018-07-22T08:55:34.126Z,15872.00
2018-07-22T08:56:34.123Z,15824.00
2018-07-22T08:57:34.131Z,15796.00
2018-07-22T08:58:34.090Z,15372.00
2018-07-22T08:59:34.083Z,15824.00
2018-07-22T09:00:34.032Z,15820.00
2018-07-22T09:01:34.062Z,15732.00
2018-07-22T09:02:34.087Z,15688.00
2018-07-22T09:03:34.039Z,15588.00
2018-07-22T09:04:33.992Z,15440.00
2018-07-22T09:05:34.037Z,15304.00
2018-07-22T09:06:33.970Z,15216.00
2018-07-22T09:07:33.999Z,15188.00
2018-07-22T09:08:34.025Z,15168.00
2018-07-22T09:09:33.987Z,15160.00
2018-07-22T09:10:34.012Z,15128.00
2018-07-22T09:11:33.984Z,15060.00
2018-07-22T09:12:33.948Z,14928.00
2018-07-22T09:13:33.935Z,14696.00
2018-07-22T09:14:33.951Z,14328.00
2018-07-22T09:15:33.913Z,14288.00
2018-07-22T09:16:33.933Z,14228.00
2018-07-22T09:17:33.893Z,14152.00
2018-07-22T09:18:33.881Z,14172.00
2018-07-22T09:19:34.164Z,14180.00
2018-07-22T09:20:33.865Z,14216.00
2018-07-22T09:21:33.846Z,14236.00
2018-07-22T09:22:33.837Z,14252.00
2018-07-22T09:23:33.834Z,14284.00
2018-07-22T09:24:33.837Z,14296.00
2018-07-22T09:25:33.810Z,14148.00
2018-07-22T09:26:33.792Z,13616.00
2018-07-22T09:27:33.789Z,13556.00
2018-07-22T09:28:33.770Z,14008.00
2018-07-22T09:29:33.794Z,13876.00
2018-07-22T09:30:33.777Z,13452.00
2018-07-22T09:31:33.741Z,13064.00
2018-07-22T09:32:33.687Z,12880.00
2018-07-22T09:33:33.722Z,12804.00
2018-07-22T09:34:33.742Z,12904.00
2018-07-22T09:35:33.697Z,12616.00
2018-07-22T09:36:33.729Z,12396.00
2018-07-22T09:37:33.847Z,12368.00
2018-07-22T09:38:33.697Z,12508.00
2018-07-22T09:39:33.655Z,12532.00
2018-07-22T09:40:33.674Z,12708.00
2018-07-22T09:41:33.635Z,12716.00
2018-07-22T09:42:33.625Z,12680.00
2018-07-22T09:43:33.616Z,12772.00
2018-07-22T09:44:33.603Z,12816.00
2018-07-22T09:45:33.623Z,12760.00
2018-07-22T09:46:33.583Z,12660.00
2018-07-22T09:47:33.574Z,12528.00
2018-07-22T09:48:33.564Z,12480.00
2018-07-22T09:49:33.552Z,12192.00
2018-07-22T09:50:33.574Z,11876.00
2018-07-22T09:51:33.529Z,11652.00
2018-07-22T09:52:33.489Z,11416.00
2018-07-22T09:53:33.566Z,11076.00
2018-07-22T09:54:33.504Z,11104.00
2018-07-22T09:55:33.513Z,11240.00
2018-07-22T09:56:33.482Z,11196.00
2018-07-22T09:57:33.429Z,11160.00
2018-07-22T09:58:33.472Z,11100.00
2018-07-22T09:59:33.452Z,11068.00
2018-07-22T10:00:33.435Z,11024.00
2018-07-22T10:01:33.452Z,11000.00
2018-07-22T10:02:33.417Z,10952.00
2018-07-22T10:03:33.510Z,10896.00
2018-07-22T10:04:33.412Z,10848.00
2018-07-22T10:05:33.400Z,10752.00
2018-07-22T10:06:33.414Z,10724.00
2018-07-22T10:07:33.387Z,10784.00
2018-07-22T10:08:33.353Z,10772.00
2018-07-22T10:09:33.297Z,10688.00
2018-07-22T10:10:33.332Z,10576.00
2018-07-22T10:11:33.365Z,10428.00
2018-07-22T10:12:33.313Z,10428.00
2018-07-22T10:13:33.313Z,10376.00
2018-07-22T10:14:33.362Z,10612.00
2018-07-22T10:15:33.279Z,10604.00
2018-07-22T10:16:33.304Z,10560.00
2018-07-22T10:17:33.318Z,10444.00
2018-07-22T10:18:33.259Z,10256.00
2018-07-22T10:19:33.243Z,10088.00
2018-07-22T10:20:33.230Z,9936.00
2018-07-22T10:21:33.224Z,9872.00
2018-07-22T10:22:33.237Z,9892.00
2018-07-22T10:23:33.201Z,10044.00
2018-07-22T10:24:33.205Z,10064.00
2018-07-22T10:25:33.149Z,10068.00
2018-07-22T10:26:33.163Z,10048.00
2018-07-22T10:27:33.269Z,10008.00
2018-07-22T10:28:33.232Z,9948.00
2018-07-22T10:29:33.134Z,9888.00
2018-07-22T10:30:33.131Z,9816.00
2018-07-22T10:31:33.118Z,9744.00
2018-07-22T10:32:33.134Z,9660.00
2018-07-22T10:33:33.108Z,9584.00
2018-07-22T10:34:33.083Z,9536.00
2018-07-22T10:35:33.081Z,9524.00
2018-07-22T10:36:33.065Z,9468.00
2018-07-22T10:37:33.076Z,9416.00
2018-07-22T10:38:33.050Z,9384.00
2018-07-22T10:39:33.034Z,9336.00
2018-07-22T10:40:33.016Z,9272.00
2018-07-22T10:41:33.012Z,9184.00
2018-07-22T10:42:33.031Z,9128.00
2018-07-22T10:43:32.987Z,9076.00
2018-07-22T10:44:32.976Z,9036.00
2018-07-22T10:45:32.964Z,9004.00
2018-07-22T10:46:32.958Z,8948.00
2018-07-22T10:47:32.970Z,8932.00
2018-07-22T10:48:32.939Z,8920.00
2018-07-22T10:49:32.919Z,8892.00
2018-07-22T10:50:32.872Z,8852.00
2018-07-22T10:51:32.903Z,8808.00
2018-07-22T10:52:32.977Z,8772.00
2018-07-22T10:53:32.840Z,8724.00
2018-07-22T10:54:32.875Z,8692.00
2018-07-22T10:55:32.858Z,8672.00
2018-07-22T10:56:32.810Z,8644.00
2018-07-22T10:57:32.862Z,8632.00
2018-07-22T10:58:32.786Z,8620.00
2018-07-22T10:59:32.820Z,8612.00
2018-07-22T11:00:32.810Z,8624.00
2018-07-22T11:01:32.803Z,8596.00
2018-07-22T11:02:33.021Z,8548.00
2018-07-22T11:03:32.798Z,8532.00
2018-07-22T11:04:32.810Z,8488.00
2018-07-22T11:05:32.723Z,8452.00
2018-07-22T11:06:32.785Z,8428.00
2018-07-22T11:07:32.733Z,8412.00
2018-07-22T11:08:32.749Z,8376.00
2018-07-22T11:09:32.671Z,8336.00
2018-07-22T11:10:39.724Z,8276.00
2018-07-22T11:11:32.695Z,8228.00
2018-07-22T11:12:32.686Z,8204.00
2018-07-22T11:13:32.691Z,8176.00
2018-07-22T11:14:32.756Z,8168.00
2018-07-22T11:15:32.646Z,8168.00
2018-07-22T11:16:32.647Z,8144.00
2018-07-22T11:17:32.587Z,8124.00
2018-07-22T11:18:32.643Z,8104.00
2018-07-22T11:19:32.607Z,8072.00
2018-07-22T11:20:32.597Z,8060.00
2018-07-22T11:21:32.581Z,8048.00
2018-07-22T11:22:32.575Z,8036.00
2018-07-22T11:23:32.590Z,8016.00
2018-07-22T11:24:32.552Z,7996.00
2018-07-22T11:25:32.543Z,7988.00
2018-07-22T11:26:32.533Z,7964.00
2018-07-22T11:27:32.521Z,7920.00
2018-07-22T11:28:32.550Z,7880.00
2018-07-22T11:29:32.504Z,7840.00
2018-07-22T11:30:32.495Z,7916.00
2018-07-22T11:31:32.485Z,7940.00
2018-07-22T11:32:32.494Z,7872.00
2018-07-22T11:33:32.488Z,7776.00
2018-07-22T11:34:32.462Z,7748.00
2018-07-22T11:35:32.444Z,7732.00
2018-07-22T11:36:32.457Z,7748.00
2018-07-22T11:37:32.424Z,7748.00
2018-07-22T11:38:32.431Z,7732.00
2018-07-22T11:39:32.401Z,7692.00
2018-07-22T11:40:32.348Z,7668.00
2018-07-22T11:41:32.373Z,7628.00
2018-07-22T11:42:32.363Z,7592.00
2018-07-22T11:43:32.347Z,7548.00
2018-07-22T11:44:32.350Z,7488.00
2018-07-22T11:45:32.328Z,7444.00
2018-07-22T11:46:32.329Z,7468.00
2018-07-22T11:47:32.312Z,7488.00
2018-07-22T11:48:32.287Z,7504.00
2018-07-22T11:49:32.248Z,7520.00
2018-07-22T11:50:32.293Z,7548.00
2018-07-22T11:51:32.271Z,7572.00
2018-07-22T11:52:32.260Z,7580.00
2018-07-22T11:53:32.282Z,7540.00
2018-07-22T11:54:32.296Z,7492.00
2018-07-22T11:55:32.182Z,7472.00
2018-07-22T11:56:32.213Z,7416.00
2018-07-22T11:57:32.210Z,7360.00
2018-07-22T11:58:32.226Z,7284.00
2018-07-22T11:59:32.144Z,7196.00
2018-07-22T12:00:32.149Z,7036.00
2018-07-22T12:01:32.182Z,6640.00
2018-07-22T12:02:32.153Z,6676.00
2018-07-22T12:03:32.214Z,6800.00
2018-07-22T12:04:32.135Z,7376.00
2018-07-22T12:05:32.121Z,7496.00
2018-07-22T12:06:32.118Z,7564.00
2018-07-22T12:07:32.154Z,7588.00
2018-07-22T12:08:32.117Z,7644.00
2018-07-22T12:09:32.095Z,7648.00
2018-07-22T12:10:32.067Z,7472.00
2018-07-22T12:11:32.061Z,7332.00
2018-07-22T12:12:32.057Z,7248.00
2018-07-22T12:13:32.067Z,7128.00
2018-07-22T12:14:32.530Z,7068.00
2018-07-22T12:15:32.012Z,6960.00
2018-07-22T12:16:32.056Z,6696.00
2018-07-22T12:17:31.996Z,6460.00
2018-07-22T12:18:32.022Z,6496.00
2018-07-22T12:19:32.061Z,6624.00
2018-07-22T12:20:31.970Z,6664.00
2018-07-22T12:21:32.091Z,6516.00